sensor_id;sensor_type;location;lat;lon;timestamp;temperature;humidity
34153;DHT22;20426;48.372;10.888;2023-02-15T00:00:17;-0.80;99.90
34153;DHT22;20426;48.372;10.888;2023-02-15T00:00:48;-0.80;99.90
34153;DHT22;20426;48.372;10.888;2023-02-15T00:01:19;-0.80;99.90
34153;DHT22;20426;48.372;10.888;2023-02-15T00:01:50;-0.80;99.90
34153;DHT22;20426;48.372;10.888;2023-02-15T00:02:39;-0.80;99.90
34153;DHT22;20426;48.372;10.888;2023-02-15T00:03:10;-0.70;99.90
34153;DHT22;20426;48.372;10.888;2023-02-15T00:03:40;-0.70;99.90
34153;DHT22;20426;48.372;10.888;2023-02-15T00:04:17;-0.70;99.90
34153;DHT22;20426;48.372;10.888;2023-02-15T00:04:48;-0.70;99.90
34153;DHT22;20426;48.372;10.888;2023-02-15T00:05:19;-0.70;99.90
34153;DHT22;20426;48.372;10.888;2023-02-15T00:05:49;-0.70;99.90
34153;DHT22;20426;48.372;10.888;2023-02-15T00:06:20;-0.70;99.90
34153;DHT22;20426;48.372;10.888;2023-02-15T00:06:51;-0.70;99.90
34153;DHT22;20426;48.372;10.888;2023-02-15T00:07:21;-0.70;99.90
34153;DHT22;20426;48.372;10.888;2023-02-15T00:07:52;-0.70;99.90
34153;DHT22;20426;48.372;10.888;2023-02-15T00:08:23;-0.70;99.90
34153;DHT22;20426;48.372;10.888;2023-02-15T00:08:55;-0.70;99.90
34153;DHT22;20426;48.372;10.888;2023-02-15T00:09:25;-0.60;99.90
34153;DHT22;20426;48.372;10.888;2023-02-15T00:09:56;-0.70;99.90
34153;DHT22;20426;48.372;10.888;2023-02-15T00:10:27;-0.60;99.90
34153;DHT22;20426;48.372;10.888;2023-02-15T00:11:09;-0.60;99.90
34153;DHT22;20426;48.372;10.888;2023-02-15T00:11:40;-0.60;99.90
34153;DHT22;20426;48.372;10.888;2023-02-15T00:12:11;-0.60;99.90
34153;DHT22;20426;48.372;10.888;2023-02-15T00:12:41;-0.60;99.90
34153;DHT22;20426;48.372;10.888;2023-02-15T00:13:24;-0.60;99.90
34153;DHT22;20426;48.372;10.888;2023-02-15T00:13:54;-0.50;99.90
34153;DHT22;20426;48.372;10.888;2023-02-15T00:14:25;-0.50;99.90
34153;DHT22;20426;48.372;10.888;2023-02-15T00:14:56;-0.50;99.90
34153;DHT22;20426;48.372;10.888;2023-02-15T00:15:26;-0.50;99.90
34153;DHT22;20426;48.372;10.888;2023-02-15T00:16:05;-0.40;99.90
34153;DHT22;20426;48.372;10.888;2023-02-15T00:16:37;-0.40;99.90
34153;DHT22;20426;48.372;10.888;2023-02-15T00:17:08;-0.40;99.90
34153;DHT22;20426;48.372;10.888;2023-02-15T00:17:38;-0.40;99.90
34153;DHT22;20426;48.372;10.888;2023-02-15T00:18:09;-0.40;99.90
34153;DHT22;20426;48.372;10.888;2023-02-15T00:18:40;-0.40;99.90
34153;DHT22;20426;48.372;10.888;2023-02-15T00:19:12;-0.40;99.90
34153;DHT22;20426;48.372;10.888;2023-02-15T00:19:43;-0.40;99.90
34153;DHT22;20426;48.372;10.888;2023-02-15T00:20:13;-0.40;99.90
34153;DHT22;20426;48.372;10.888;2023-02-15T00:20:44;-0.40;99.90
34153;DHT22;20426;48.372;10.888;2023-02-15T00:21:15;-0.40;99.90
34153;DHT22;20426;48.372;10.888;2023-02-15T00:21:46;-0.40;99.90
34153;DHT22;20426;48.372;10.888;2023-02-15T00:22:17;-0.40;99.90
34153;DHT22;20426;48.372;10.888;2023-02-15T00:22:48;-0.40;99.90
34153;DHT22;20426;48.372;10.888;2023-02-15T00:23:19;-0.40;99.90
34153;DHT22;20426;48.372;10.888;2023-02-15T00:23:50;-0.50;99.90
34153;DHT22;20426;48.372;10.888;2023-02-15T00:24:20;-0.50;99.90
34153;DHT22;20426;48.372;10.888;2023-02-15T00:24:51;-0.50;99.90
34153;DHT22;20426;48.372;10.888;2023-02-15T00:25:22;-0.50;99.90
34153;DHT22;20426;48.372;10.888;2023-02-15T00:26:11;-0.50;99.90
34153;DHT22;20426;48.372;10.888;2023-02-15T00:26:43;-0.50;99.90
34153;DHT22;20426;48.372;10.888;2023-02-15T00:27:14;-0.50;99.90
34153;DHT22;20426;48.372;10.888;2023-02-15T00:27:45;-0.50;99.90
34153;DHT22;20426;48.372;10.888;2023-02-15T00:28:16;-0.50;99.90
34153;DHT22;20426;48.372;10.888;2023-02-15T00:28:46;-0.50;99.90
34153;DHT22;20426;48.372;10.888;2023-02-15T00:29:18;-0.50;99.90
34153;DHT22;20426;48.372;10.888;2023-02-15T00:29:49;-0.60;99.90
34153;DHT22;20426;48.372;10.888;2023-02-15T00:30:20;-0.60;99.90
34153;DHT22;20426;48.372;10.888;2023-02-15T00:30:51;-0.60;99.90
34153;DHT22;20426;48.372;10.888;2023-02-15T00:31:22;-0.50;99.90
34153;DHT22;20426;48.372;10.888;2023-02-15T00:31:52;-0.50;99.90
34153;DHT22;20426;48.372;10.888;2023-02-15T00:32:23;-0.50;99.90
34153;DHT22;20426;48.372;10.888;2023-02-15T00:32:54;-0.50;99.90
34153;DHT22;20426;48.372;10.888;2023-02-15T00:33:25;-0.40;99.90
34153;DHT22;20426;48.372;10.888;2023-02-15T00:34:04;-0.50;99.90
34153;DHT22;20426;48.372;10.888;2023-02-15T00:34:35;-0.50;99.90
34153;DHT22;20426;48.372;10.888;2023-02-15T00:35:06;-0.40;99.90
34153;DHT22;20426;48.372;10.888;2023-02-15T00:35:37;-0.50;99.90
34153;DHT22;20426;48.372;10.888;2023-02-15T00:36:09;-0.50;99.90
34153;DHT22;20426;48.372;10.888;2023-02-15T00:36:40;-0.50;99.90
34153;DHT22;20426;48.372;10.888;2023-02-15T00:37:11;-0.50;99.90
34153;DHT22;20426;48.372;10.888;2023-02-15T00:37:42;-0.50;99.90
34153;DHT22;20426;48.372;10.888;2023-02-15T00:38:12;-0.50;99.90
34153;DHT22;20426;48.372;10.888;2023-02-15T00:38:43;-0.60;99.90
34153;DHT22;20426;48.372;10.888;2023-02-15T00:39:15;-0.60;99.90
34153;DHT22;20426;48.372;10.888;2023-02-15T00:39:46;-0.60;99.90
34153;DHT22;20426;48.372;10.888;2023-02-15T00:40:17;-0.60;99.90
34153;DHT22;20426;48.372;10.888;2023-02-15T00:40:55;-0.60;99.90
34153;DHT22;20426;48.372;10.888;2023-02-15T00:41:25;-0.60;99.90
34153;DHT22;20426;48.372;10.888;2023-02-15T00:41:56;-0.60;99.90
34153;DHT22;20426;48.372;10.888;2023-02-15T00:42:27;-0.60;99.90
34153;DHT22;20426;48.372;10.888;2023-02-15T00:42:58;-0.60;99.90
34153;DHT22;20426;48.372;10.888;2023-02-15T00:43:30;-0.60;99.90
34153;DHT22;20426;48.372;10.888;2023-02-15T00:44:01;-0.60;99.90
34153;DHT22;20426;48.372;10.888;2023-02-15T00:44:32;-0.60;99.90
34153;DHT22;20426;48.372;10.888;2023-02-15T00:45:03;-0.60;99.90
34153;DHT22;20426;48.372;10.888;2023-02-15T00:45:34;-0.60;99.90
34153;DHT22;20426;48.372;10.888;2023-02-15T00:46:07;-0.60;99.90
34153;DHT22;20426;48.372;10.888;2023-02-15T00:46:37;-0.60;99.90
34153;DHT22;20426;48.372;10.888;2023-02-15T00:47:08;-0.50;99.90
34153;DHT22;20426;48.372;10.888;2023-02-15T00:47:39;-0.60;99.90
34153;DHT22;20426;48.372;10.888;2023-02-15T00:48:09;-0.60;99.90
34153;DHT22;20426;48.372;10.888;2023-02-15T00:48:40;-0.60;99.90
34153;DHT22;20426;48.372;10.888;2023-02-15T00:49:11;-0.50;99.90
34153;DHT22;20426;48.372;10.888;2023-02-15T00:49:42;-0.50;99.90
34153;DHT22;20426;48.372;10.888;2023-02-15T00:50:12;-0.50;99.90
34153;DHT22;20426;48.372;10.888;2023-02-15T00:50:53;-0.50;99.90
34153;DHT22;20426;48.372;10.888;2023-02-15T00:51:24;-0.50;99.90
34153;DHT22;20426;48.372;10.888;2023-02-15T00:51:55;-0.50;99.90
34153;DHT22;20426;48.372;10.888;2023-02-15T00:52:26;-0.50;99.90
34153;DHT22;20426;48.372;10.888;2023-02-15T00:52:56;-0.50;99.90
34153;DHT22;20426;48.372;10.888;2023-02-15T00:53:28;-0.50;99.90
34153;DHT22;20426;48.372;10.888;2023-02-15T00:53:59;-0.50;99.90
34153;DHT22;20426;48.372;10.888;2023-02-15T00:54:29;-0.60;99.90
34153;DHT22;20426;48.372;10.888;2023-02-15T00:55:00;-0.60;99.90
34153;DHT22;20426;48.372;10.888;2023-02-15T00:55:31;-0.60;99.90
34153;DHT22;20426;48.372;10.888;2023-02-15T00:56:02;-0.50;99.90
34153;DHT22;20426;48.372;10.888;2023-02-15T00:56:32;-0.60;99.90
34153;DHT22;20426;48.372;10.888;2023-02-15T00:57:03;-0.60;99.90
34153;DHT22;20426;48.372;10.888;2023-02-15T00:57:34;-0.60;99.90
34153;DHT22;20426;48.372;10.888;2023-02-15T00:58:04;-0.60;99.90
34153;DHT22;20426;48.372;10.888;2023-02-15T00:58:35;-0.60;99.90
34153;DHT22;20426;48.372;10.888;2023-02-15T00:59:07;-0.60;99.90
34153;DHT22;20426;48.372;10.888;2023-02-15T00:59:38;-0.50;99.90
34153;DHT22;20426;48.372;10.888;2023-02-15T01:00:09;-0.50;99.90
34153;DHT22;20426;48.372;10.888;2023-02-15T01:00:42;-0.50;99.90
34153;DHT22;20426;48.372;10.888;2023-02-15T01:01:16;-0.50;99.90
34153;DHT22;20426;48.372;10.888;2023-02-15T01:01:47;-0.40;99.90
34153;DHT22;20426;48.372;10.888;2023-02-15T01:02:18;-0.40;99.90
34153;DHT22;20426;48.372;10.888;2023-02-15T01:02:48;-0.40;99.90
34153;DHT22;20426;48.372;10.888;2023-02-15T01:03:21;-0.50;99.90
34153;DHT22;20426;48.372;10.888;2023-02-15T01:03:52;-0.50;99.90
34153;DHT22;20426;48.372;10.888;2023-02-15T01:04:22;-0.40;99.90
34153;DHT22;20426;48.372;10.888;2023-02-15T01:04:53;-0.40;99.90
34153;DHT22;20426;48.372;10.888;2023-02-15T01:05:24;-0.40;99.90
34153;DHT22;20426;48.372;10.888;2023-02-15T01:05:54;-0.40;99.90
34153;DHT22;20426;48.372;10.888;2023-02-15T01:06:25;-0.40;99.90
34153;DHT22;20426;48.372;10.888;2023-02-15T01:06:56;-0.40;99.90
34153;DHT22;20426;48.372;10.888;2023-02-15T01:07:26;-0.40;99.90
34153;DHT22;20426;48.372;10.888;2023-02-15T01:07:57;-0.40;99.90
34153;DHT22;20426;48.372;10.888;2023-02-15T01:08:28;-0.40;99.90
34153;DHT22;20426;48.372;10.888;2023-02-15T01:08:59;-0.40;99.90
34153;DHT22;20426;48.372;10.888;2023-02-15T01:09:29;-0.40;99.90
34153;DHT22;20426;48.372;10.888;2023-02-15T01:10:00;-0.40;99.90
34153;DHT22;20426;48.372;10.888;2023-02-15T01:10:31;-0.40;99.90
34153;DHT22;20426;48.372;10.888;2023-02-15T01:11:07;-0.40;99.90
34153;DHT22;20426;48.372;10.888;2023-02-15T01:11:38;-0.40;99.90
34153;DHT22;20426;48.372;10.888;2023-02-15T01:12:09;-0.50;99.90
34153;DHT22;20426;48.372;10.888;2023-02-15T01:12:39;-0.50;99.90
34153;DHT22;20426;48.372;10.888;2023-02-15T01:13:10;-0.50;99.90
34153;DHT22;20426;48.372;10.888;2023-02-15T01:13:41;-0.50;99.90
34153;DHT22;20426;48.372;10.888;2023-02-15T01:14:12;-0.50;99.90
34153;DHT22;20426;48.372;10.888;2023-02-15T01:14:43;-0.50;99.90
34153;DHT22;20426;48.372;10.888;2023-02-15T01:15:14;-0.50;99.90
34153;DHT22;20426;48.372;10.888;2023-02-15T01:15:45;-0.50;99.90
34153;DHT22;20426;48.372;10.888;2023-02-15T01:16:16;-0.50;99.90
34153;DHT22;20426;48.372;10.888;2023-02-15T01:16:47;-0.50;99.90
34153;DHT22;20426;48.372;10.888;2023-02-15T01:17:17;-0.50;99.90
34153;DHT22;20426;48.372;10.888;2023-02-15T01:17:48;-0.50;99.90
34153;DHT22;20426;48.372;10.888;2023-02-15T01:18:23;-0.50;99.90
34153;DHT22;20426;48.372;10.888;2023-02-15T01:18:54;-0.50;99.90
34153;DHT22;20426;48.372;10.888;2023-02-15T01:19:27;-0.50;99.90
34153;DHT22;20426;48.372;10.888;2023-02-15T01:19:58;-0.50;99.90
34153;DHT22;20426;48.372;10.888;2023-02-15T01:20:29;-0.50;99.90
34153;DHT22;20426;48.372;10.888;2023-02-15T01:21:15;-0.50;99.90
34153;DHT22;20426;48.372;10.888;2023-02-15T01:21:46;-0.40;99.90
34153;DHT22;20426;48.372;10.888;2023-02-15T01:22:17;-0.50;99.90
34153;DHT22;20426;48.372;10.888;2023-02-15T01:22:48;-0.40;99.90
34153;DHT22;20426;48.372;10.888;2023-02-15T01:23:20;-0.40;99.90
34153;DHT22;20426;48.372;10.888;2023-02-15T01:23:51;-0.40;99.90
34153;DHT22;20426;48.372;10.888;2023-02-15T01:24:21;-0.40;99.90
34153;DHT22;20426;48.372;10.888;2023-02-15T01:24:52;-0.40;99.90
34153;DHT22;20426;48.372;10.888;2023-02-15T01:25:24;-0.40;99.90
34153;DHT22;20426;48.372;10.888;2023-02-15T01:25:55;-0.40;99.90
34153;DHT22;20426;48.372;10.888;2023-02-15T01:26:26;-0.40;99.90
34153;DHT22;20426;48.372;10.888;2023-02-15T01:26:57;-0.50;99.90
34153;DHT22;20426;48.372;10.888;2023-02-15T01:27:28;-0.50;99.90
34153;DHT22;20426;48.372;10.888;2023-02-15T01:28:01;-0.50;99.90
34153;DHT22;20426;48.372;10.888;2023-02-15T01:28:32;-0.50;99.90
34153;DHT22;20426;48.372;10.888;2023-02-15T01:29:03;-0.50;99.90
34153;DHT22;20426;48.372;10.888;2023-02-15T01:29:34;-0.50;99.90
34153;DHT22;20426;48.372;10.888;2023-02-15T01:30:05;-0.50;99.90
34153;DHT22;20426;48.372;10.888;2023-02-15T01:30:36;-0.50;99.90
34153;DHT22;20426;48.372;10.888;2023-02-15T01:31:12;-0.50;99.90
34153;DHT22;20426;48.372;10.888;2023-02-15T01:31:43;-0.50;99.90
34153;DHT22;20426;48.372;10.888;2023-02-15T01:32:13;-0.50;99.90
34153;DHT22;20426;48.372;10.888;2023-02-15T01:32:44;-0.50;99.90
34153;DHT22;20426;48.372;10.888;2023-02-15T01:33:15;-0.40;99.90
34153;DHT22;20426;48.372;10.888;2023-02-15T01:33:48;-0.50;99.90
34153;DHT22;20426;48.372;10.888;2023-02-15T01:34:19;-0.40;99.90
34153;DHT22;20426;48.372;10.888;2023-02-15T01:34:50;-0.40;99.90
34153;DHT22;20426;48.372;10.888;2023-02-15T01:35:21;-0.40;99.90
34153;DHT22;20426;48.372;10.888;2023-02-15T01:35:58;-0.40;99.90
34153;DHT22;20426;48.372;10.888;2023-02-15T01:36:29;-0.40;99.90
34153;DHT22;20426;48.372;10.888;2023-02-15T01:37:00;-0.40;99.90
34153;DHT22;20426;48.372;10.888;2023-02-15T01:37:32;-0.40;99.90
34153;DHT22;20426;48.372;10.888;2023-02-15T01:38:03;-0.40;99.90
34153;DHT22;20426;48.372;10.888;2023-02-15T01:38:35;-0.40;99.90
34153;DHT22;20426;48.372;10.888;2023-02-15T01:39:05;-0.40;99.90
34153;DHT22;20426;48.372;10.888;2023-02-15T01:39:38;-0.40;99.90
34153;DHT22;20426;48.372;10.888;2023-02-15T01:40:13;-0.40;99.90
34153;DHT22;20426;48.372;10.888;2023-02-15T01:40:44;-0.40;99.90
34153;DHT22;20426;48.372;10.888;2023-02-15T01:41:15;-0.40;99.90
34153;DHT22;20426;48.372;10.888;2023-02-15T01:41:54;-0.40;99.90
34153;DHT22;20426;48.372;10.888;2023-02-15T01:42:27;-0.40;99.90
34153;DHT22;20426;48.372;10.888;2023-02-15T01:42:58;-0.40;99.90
34153;DHT22;20426;48.372;10.888;2023-02-15T01:43:44;-0.40;99.90
34153;DHT22;20426;48.372;10.888;2023-02-15T01:45:13;-0.40;99.90
34153;DHT22;20426;48.372;10.888;2023-02-15T01:45:31;-0.40;99.90
34153;DHT22;20426;48.372;10.888;2023-02-15T01:46:02;-0.50;99.90
34153;DHT22;20426;48.372;10.888;2023-02-15T01:46:38;-0.50;99.90
34153;DHT22;20426;48.372;10.888;2023-02-15T01:47:17;-0.50;99.90
34153;DHT22;20426;48.372;10.888;2023-02-15T01:48:27;-0.60;99.90
34153;DHT22;20426;48.372;10.888;2023-02-15T01:49:03;-0.60;99.90
34153;DHT22;20426;48.372;10.888;2023-02-15T01:49:39;-0.60;99.90
34153;DHT22;20426;48.372;10.888;2023-02-15T01:51:19;-0.60;99.90
34153;DHT22;20426;48.372;10.888;2023-02-15T01:51:21;-0.60;99.90
34153;DHT22;20426;48.372;10.888;2023-02-15T01:51:53;-0.60;99.90
34153;DHT22;20426;48.372;10.888;2023-02-15T01:52:24;-0.60;99.90
34153;DHT22;20426;48.372;10.888;2023-02-15T01:52:56;-0.60;99.90
34153;DHT22;20426;48.372;10.888;2023-02-15T01:53:34;-0.60;99.90
34153;DHT22;20426;48.372;10.888;2023-02-15T01:54:27;-0.60;99.90
34153;DHT22;20426;48.372;10.888;2023-02-15T01:54:59;-0.60;99.90
34153;DHT22;20426;48.372;10.888;2023-02-15T01:55:37;-0.60;99.90
34153;DHT22;20426;48.372;10.888;2023-02-15T01:56:22;-0.60;99.90
34153;DHT22;20426;48.372;10.888;2023-02-15T01:56:55;-0.60;99.90
34153;DHT22;20426;48.372;10.888;2023-02-15T01:57:28;-0.60;99.90
34153;DHT22;20426;48.372;10.888;2023-02-15T01:57:59;-0.60;99.90
34153;DHT22;20426;48.372;10.888;2023-02-15T01:58:32;-0.50;99.90
34153;DHT22;20426;48.372;10.888;2023-02-15T01:59:08;-0.50;99.90
34153;DHT22;20426;48.372;10.888;2023-02-15T01:59:43;-0.50;99.90
34153;DHT22;20426;48.372;10.888;2023-02-15T02:00:18;-0.50;99.90
34153;DHT22;20426;48.372;10.888;2023-02-15T02:00:49;-0.40;99.90
34153;DHT22;20426;48.372;10.888;2023-02-15T02:01:20;-0.50;99.90
34153;DHT22;20426;48.372;10.888;2023-02-15T02:01:57;-0.50;99.90
34153;DHT22;20426;48.372;10.888;2023-02-15T02:02:29;-0.50;99.90
34153;DHT22;20426;48.372;10.888;2023-02-15T02:03:00;-0.50;99.90
34153;DHT22;20426;48.372;10.888;2023-02-15T02:04:02;-0.50;99.90
34153;DHT22;20426;48.372;10.888;2023-02-15T02:04:48;-0.50;99.90
34153;DHT22;20426;48.372;10.888;2023-02-15T02:05:19;-0.50;99.90
34153;DHT22;20426;48.372;10.888;2023-02-15T02:05:50;-0.40;99.90
34153;DHT22;20426;48.372;10.888;2023-02-15T02:06:21;-0.40;99.90
34153;DHT22;20426;48.372;10.888;2023-02-15T02:06:52;-0.40;99.90
34153;DHT22;20426;48.372;10.888;2023-02-15T02:07:27;-0.40;99.90
34153;DHT22;20426;48.372;10.888;2023-02-15T02:08:01;-0.40;99.90
34153;DHT22;20426;48.372;10.888;2023-02-15T02:08:32;-0.40;99.90
34153;DHT22;20426;48.372;10.888;2023-02-15T02:09:03;-0.40;99.90
34153;DHT22;20426;48.372;10.888;2023-02-15T02:09:36;-0.40;99.90
34153;DHT22;20426;48.372;10.888;2023-02-15T02:10:08;-0.40;99.90
34153;DHT22;20426;48.372;10.888;2023-02-15T02:10:39;-0.50;99.90
34153;DHT22;20426;48.372;10.888;2023-02-15T02:11:11;-0.50;99.90
34153;DHT22;20426;48.372;10.888;2023-02-15T02:11:45;-0.50;99.90
34153;DHT22;20426;48.372;10.888;2023-02-15T02:12:17;-0.50;99.90
34153;DHT22;20426;48.372;10.888;2023-02-15T02:12:51;-0.50;99.90
34153;DHT22;20426;48.372;10.888;2023-02-15T02:13:23;-0.50;99.90
34153;DHT22;20426;48.372;10.888;2023-02-15T02:13:55;-0.50;99.90
34153;DHT22;20426;48.372;10.888;2023-02-15T02:14:26;-0.50;99.90
34153;DHT22;20426;48.372;10.888;2023-02-15T02:14:58;-0.50;99.90
34153;DHT22;20426;48.372;10.888;2023-02-15T02:16:03;-0.50;99.90
34153;DHT22;20426;48.372;10.888;2023-02-15T02:18:49;-0.60;99.90
34153;DHT22;20426;48.372;10.888;2023-02-15T02:20:01;-0.60;99.90
34153;DHT22;20426;48.372;10.888;2023-02-15T02:21:02;-0.60;99.90
34153;DHT22;20426;48.372;10.888;2023-02-15T02:23:24;-0.70;99.90
34153;DHT22;20426;48.372;10.888;2023-02-15T02:25:42;-0.60;99.90
34153;DHT22;20426;48.372;10.888;2023-02-15T02:27:39;-0.60;99.90
34153;DHT22;20426;48.372;10.888;2023-02-15T02:32:59;-0.60;99.90
34153;DHT22;20426;48.372;10.888;2023-02-15T02:35:06;-0.60;99.90
34153;DHT22;20426;48.372;10.888;2023-02-15T02:35:48;-0.60;99.90
34153;DHT22;20426;48.372;10.888;2023-02-15T02:36:36;-0.50;99.90
34153;DHT22;20426;48.372;10.888;2023-02-15T02:42:40;-0.80;99.90
34153;DHT22;20426;48.372;10.888;2023-02-15T02:43:22;-0.80;99.90
34153;DHT22;20426;48.372;10.888;2023-02-15T02:44:46;-0.90;99.90
34153;DHT22;20426;48.372;10.888;2023-02-15T02:46:21;-1.00;99.90
34153;DHT22;20426;48.372;10.888;2023-02-15T02:48:20;-1.00;99.90
34153;DHT22;20426;48.372;10.888;2023-02-15T02:48:53;-1.00;99.90
34153;DHT22;20426;48.372;10.888;2023-02-15T02:49:39;-1.00;99.90
34153;DHT22;20426;48.372;10.888;2023-02-15T02:50:17;-1.00;99.90
34153;DHT22;20426;48.372;10.888;2023-02-15T02:50:48;-1.00;99.90
34153;DHT22;20426;48.372;10.888;2023-02-15T02:51:19;-1.10;99.90
34153;DHT22;20426;48.372;10.888;2023-02-15T02:51:59;-1.10;99.90
34153;DHT22;20426;48.372;10.888;2023-02-15T02:52:43;-1.10;99.90
34153;DHT22;20426;48.372;10.888;2023-02-15T02:53:14;-1.10;99.90
34153;DHT22;20426;48.372;10.888;2023-02-15T02:53:45;-1.10;99.90
34153;DHT22;20426;48.372;10.888;2023-02-15T02:54:15;-1.10;99.90
34153;DHT22;20426;48.372;10.888;2023-02-15T02:54:46;-1.10;99.90
34153;DHT22;20426;48.372;10.888;2023-02-15T02:56:09;-1.10;99.90
34153;DHT22;20426;48.372;10.888;2023-02-15T02:56:47;-1.10;99.90
34153;DHT22;20426;48.372;10.888;2023-02-15T02:57:20;-1.10;99.90
34153;DHT22;20426;48.372;10.888;2023-02-15T02:59:33;-1.10;99.90
34153;DHT22;20426;48.372;10.888;2023-02-15T03:00:07;-1.00;99.90
34153;DHT22;20426;48.372;10.888;2023-02-15T03:01:29;-1.00;99.90
34153;DHT22;20426;48.372;10.888;2023-02-15T03:02:04;-1.00;99.90
34153;DHT22;20426;48.372;10.888;2023-02-15T03:02:41;-1.00;99.90
34153;DHT22;20426;48.372;10.888;2023-02-15T03:03:27;-1.00;99.90
34153;DHT22;20426;48.372;10.888;2023-02-15T03:04:03;-1.00;99.90
34153;DHT22;20426;48.372;10.888;2023-02-15T03:04:39;-0.90;99.90
34153;DHT22;20426;48.372;10.888;2023-02-15T03:05:16;-0.90;99.90
34153;DHT22;20426;48.372;10.888;2023-02-15T03:05:50;-0.90;99.90
34153;DHT22;20426;48.372;10.888;2023-02-15T03:07:28;-0.80;99.90
34153;DHT22;20426;48.372;10.888;2023-02-15T03:08:03;-0.80;99.90
34153;DHT22;20426;48.372;10.888;2023-02-15T03:08:41;-0.80;99.90
34153;DHT22;20426;48.372;10.888;2023-02-15T03:09:35;-0.80;99.90
34153;DHT22;20426;48.372;10.888;2023-02-15T03:10:13;-0.80;99.90
34153;DHT22;20426;48.372;10.888;2023-02-15T03:10:45;-0.80;99.90
34153;DHT22;20426;48.372;10.888;2023-02-15T03:11:15;-0.80;99.90
34153;DHT22;20426;48.372;10.888;2023-02-15T03:11:47;-0.80;99.90
34153;DHT22;20426;48.372;10.888;2023-02-15T03:12:28;-0.90;99.90
34153;DHT22;20426;48.372;10.888;2023-02-15T03:13:00;-0.80;99.90
34153;DHT22;20426;48.372;10.888;2023-02-15T03:13:32;-0.90;99.90
34153;DHT22;20426;48.372;10.888;2023-02-15T03:14:03;-0.90;99.90
34153;DHT22;20426;48.372;10.888;2023-02-15T03:14:34;-0.90;99.90
34153;DHT22;20426;48.372;10.888;2023-02-15T03:15:10;-0.90;99.90
34153;DHT22;20426;48.372;10.888;2023-02-15T03:15:42;-0.90;99.90
34153;DHT22;20426;48.372;10.888;2023-02-15T03:16:33;-0.90;99.90
34153;DHT22;20426;48.372;10.888;2023-02-15T03:17:04;-0.90;99.90
34153;DHT22;20426;48.372;10.888;2023-02-15T03:17:43;-0.90;99.90
34153;DHT22;20426;48.372;10.888;2023-02-15T03:18:17;-0.90;99.90
34153;DHT22;20426;48.372;10.888;2023-02-15T03:19:07;-0.90;99.90
34153;DHT22;20426;48.372;10.888;2023-02-15T03:19:39;-0.90;99.90
34153;DHT22;20426;48.372;10.888;2023-02-15T03:20:22;-1.00;99.90
34153;DHT22;20426;48.372;10.888;2023-02-15T03:20:56;-1.00;99.90
34153;DHT22;20426;48.372;10.888;2023-02-15T03:21:35;-0.90;99.90
34153;DHT22;20426;48.372;10.888;2023-02-15T03:22:18;-1.00;99.90
34153;DHT22;20426;48.372;10.888;2023-02-15T03:23:23;-0.90;99.90
34153;DHT22;20426;48.372;10.888;2023-02-15T03:24:04;-0.90;99.90
34153;DHT22;20426;48.372;10.888;2023-02-15T03:24:53;-0.90;99.90
34153;DHT22;20426;48.372;10.888;2023-02-15T03:25:32;-0.90;99.90
34153;DHT22;20426;48.372;10.888;2023-02-15T03:26:05;-0.90;99.90
34153;DHT22;20426;48.372;10.888;2023-02-15T03:26:39;-0.90;99.90
34153;DHT22;20426;48.372;10.888;2023-02-15T03:27:16;-0.90;99.90
34153;DHT22;20426;48.372;10.888;2023-02-15T03:27:58;-0.90;99.90
34153;DHT22;20426;48.372;10.888;2023-02-15T03:28:43;-0.90;99.90
34153;DHT22;20426;48.372;10.888;2023-02-15T03:29:17;-0.90;99.90
34153;DHT22;20426;48.372;10.888;2023-02-15T03:29:53;-1.00;99.90
34153;DHT22;20426;48.372;10.888;2023-02-15T03:30:26;-1.00;99.90
34153;DHT22;20426;48.372;10.888;2023-02-15T03:31:00;-1.00;99.90
34153;DHT22;20426;48.372;10.888;2023-02-15T03:31:35;-1.00;99.90
34153;DHT22;20426;48.372;10.888;2023-02-15T03:32:10;-1.00;99.90
34153;DHT22;20426;48.372;10.888;2023-02-15T03:32:43;-1.00;99.90
34153;DHT22;20426;48.372;10.888;2023-02-15T03:33:15;-0.90;99.90
34153;DHT22;20426;48.372;10.888;2023-02-15T03:33:57;-0.90;99.90
34153;DHT22;20426;48.372;10.888;2023-02-15T03:34:29;-0.90;99.90
34153;DHT22;20426;48.372;10.888;2023-02-15T03:35:00;-0.90;99.90
34153;DHT22;20426;48.372;10.888;2023-02-15T03:35:43;-0.80;99.90
34153;DHT22;20426;48.372;10.888;2023-02-15T03:36:50;-0.80;99.90
34153;DHT22;20426;48.372;10.888;2023-02-15T03:37:29;-0.80;99.90
34153;DHT22;20426;48.372;10.888;2023-02-15T03:38:06;-0.80;99.90
34153;DHT22;20426;48.372;10.888;2023-02-15T03:38:47;-0.80;99.90
34153;DHT22;20426;48.372;10.888;2023-02-15T03:39:59;-0.80;99.90
34153;DHT22;20426;48.372;10.888;2023-02-15T03:40:53;-0.70;99.90
34153;DHT22;20426;48.372;10.888;2023-02-15T03:41:46;-0.70;99.90
34153;DHT22;20426;48.372;10.888;2023-02-15T03:42:31;-0.70;99.90
34153;DHT22;20426;48.372;10.888;2023-02-15T03:44:22;-0.80;99.90
34153;DHT22;20426;48.372;10.888;2023-02-15T03:45:15;-0.80;99.90
34153;DHT22;20426;48.372;10.888;2023-02-15T03:45:53;-0.80;99.90
34153;DHT22;20426;48.372;10.888;2023-02-15T03:46:45;-0.80;99.90
34153;DHT22;20426;48.372;10.888;2023-02-15T03:47:20;-0.80;99.90
34153;DHT22;20426;48.372;10.888;2023-02-15T03:47:54;-0.80;99.90
34153;DHT22;20426;48.372;10.888;2023-02-15T03:48:31;-0.80;99.90
34153;DHT22;20426;48.372;10.888;2023-02-15T03:50:30;-0.90;99.90
34153;DHT22;20426;48.372;10.888;2023-02-15T03:51:25;-0.90;99.90
34153;DHT22;20426;48.372;10.888;2023-02-15T03:52:08;-0.80;99.90
34153;DHT22;20426;48.372;10.888;2023-02-15T03:52:40;-0.80;99.90
34153;DHT22;20426;48.372;10.888;2023-02-15T03:53:14;-0.90;99.90
34153;DHT22;20426;48.372;10.888;2023-02-15T03:53:47;-0.90;99.90
34153;DHT22;20426;48.372;10.888;2023-02-15T03:54:23;-0.90;99.90
34153;DHT22;20426;48.372;10.888;2023-02-15T03:55:12;-0.90;99.90
34153;DHT22;20426;48.372;10.888;2023-02-15T03:55:47;-0.90;99.90
34153;DHT22;20426;48.372;10.888;2023-02-15T03:56:18;-0.90;99.90
34153;DHT22;20426;48.372;10.888;2023-02-15T03:56:48;-0.90;99.90
34153;DHT22;20426;48.372;10.888;2023-02-15T03:57:39;-0.90;99.90
34153;DHT22;20426;48.372;10.888;2023-02-15T03:58:28;-0.90;99.90
34153;DHT22;20426;48.372;10.888;2023-02-15T03:59:18;-0.90;99.90
34153;DHT22;20426;48.372;10.888;2023-02-15T04:00:24;-1.00;99.90
34153;DHT22;20426;48.372;10.888;2023-02-15T04:01:35;-1.00;99.90
34153;DHT22;20426;48.372;10.888;2023-02-15T04:02:32;-1.00;99.90
34153;DHT22;20426;48.372;10.888;2023-02-15T04:03:26;-1.00;99.90
34153;DHT22;20426;48.372;10.888;2023-02-15T04:04:04;-1.00;99.90
34153;DHT22;20426;48.372;10.888;2023-02-15T04:04:45;-1.00;99.90
34153;DHT22;20426;48.372;10.888;2023-02-15T04:05:16;-1.00;99.90
34153;DHT22;20426;48.372;10.888;2023-02-15T04:05:47;-1.00;99.90
34153;DHT22;20426;48.372;10.888;2023-02-15T04:06:17;-1.00;99.90
34153;DHT22;20426;48.372;10.888;2023-02-15T04:06:48;-1.00;99.90
34153;DHT22;20426;48.372;10.888;2023-02-15T04:07:19;-1.00;99.90